createdAt,value
2022-12-27T00:02:31.442Z,8.17
2022-12-27T00:05:21.261Z,8.19
2022-12-27T00:08:10.810Z,8.19
2022-12-27T00:11:10.925Z,8.18
2022-12-27T00:14:02.415Z,8.15
2022-12-27T00:16:49.423Z,8.13
2022-12-27T00:19:38.918Z,8.14
2022-12-27T00:22:25.729Z,8.13
2022-12-27T00:25:12.602Z,8.09
2022-12-27T00:28:05.623Z,8.10
2022-12-27T00:30:56.182Z,8.10
2022-12-27T00:33:44.383Z,8.07
2022-12-27T00:36:31.628Z,8.06
2022-12-27T00:39:18.456Z,8.06
2022-12-27T00:42:05.303Z,8.02
2022-12-27T00:44:52.087Z,8.03
2022-12-27T00:47:43.307Z,8.03
2022-12-27T00:50:30.130Z,8.01
2022-12-27T00:53:21.961Z,8.00
2022-12-27T00:56:11.259Z,8.00
2022-12-27T00:58:59.969Z,7.96
2022-12-27T01:01:46.844Z,7.97
2022-12-27T01:04:33.791Z,7.94
2022-12-27T01:07:20.717Z,7.92
2022-12-27T01:10:07.781Z,7.86
2022-12-27T01:12:54.664Z,7.87
2022-12-27T01:15:42.288Z,7.85
2022-12-27T01:18:29.100Z,7.82
2022-12-27T01:21:18.046Z,7.80
2022-12-27T01:24:05.822Z,7.76
2022-12-27T01:26:53.866Z,7.75
2022-12-27T01:29:43.660Z,7.74
2022-12-27T01:32:33.113Z,7.71
2022-12-27T01:35:19.932Z,7.67
2022-12-27T01:38:06.707Z,7.65
2022-12-27T01:40:53.545Z,7.61
2022-12-27T01:43:43.553Z,7.61
2022-12-27T01:46:30.534Z,7.57
2022-12-27T01:49:17.393Z,7.55
2022-12-27T01:52:04.930Z,7.52
2022-12-27T01:54:54.166Z,7.47
2022-12-27T01:57:41.391Z,7.47
2022-12-27T02:00:31.394Z,7.41
2022-12-27T02:03:38.309Z,7.39
2022-12-27T02:06:26.804Z,7.36
2022-12-27T02:09:49.630Z,7.29
2022-12-27T02:12:37.350Z,7.22
2022-12-27T02:15:24.118Z,7.17
2022-12-27T02:18:11.144Z,7.12
2022-12-27T02:21:34.808Z,7.06
2022-12-27T02:24:48.931Z,6.97
2022-12-27T02:28:12.868Z,6.97
2022-12-27T02:31:07.920Z,6.91
2022-12-27T02:33:56.123Z,6.89
2022-12-27T02:36:45.341Z,6.88
2022-12-27T02:39:33.099Z,6.85
2022-12-27T02:42:38.938Z,6.81
2022-12-27T02:45:47.932Z,6.74
2022-12-27T02:48:53.464Z,6.70
2022-12-27T02:52:41.543Z,6.65
2022-12-27T02:55:40.433Z,6.58
2022-12-27T02:58:31.764Z,6.53
2022-12-27T03:01:42.073Z,6.50
2022-12-27T03:05:04.607Z,6.44
2022-12-27T03:08:04.123Z,6.44
2022-12-27T03:11:19.236Z,6.41
2022-12-27T03:14:35.235Z,6.41
2022-12-27T03:17:31.234Z,6.39
2022-12-27T03:20:37.095Z,6.38
2022-12-27T03:23:43.556Z,6.34
2022-12-27T03:26:33.848Z,6.27
2022-12-27T03:29:40.516Z,6.25
2022-12-27T03:32:45.766Z,6.22
2022-12-27T03:35:37.542Z,6.19
2022-12-27T03:38:24.769Z,6.17
2022-12-27T03:41:34.019Z,6.18
2022-12-27T03:44:26.850Z,6.15
2022-12-27T03:47:35.266Z,6.14
2022-12-27T03:51:04.736Z,6.14
2022-12-27T03:53:54.884Z,6.14
2022-12-27T03:56:42.567Z,6.11
2022-12-27T03:59:29.459Z,6.11
2022-12-27T04:02:16.764Z,6.10
2022-12-27T04:05:03.677Z,6.08
2022-12-27T04:08:08.881Z,6.07
2022-12-27T04:11:14.320Z,6.07
2022-12-27T04:14:21.165Z,6.04
2022-12-27T04:17:26.724Z,6.03
2022-12-27T04:20:32.503Z,6.02
2022-12-27T04:23:38.071Z,5.99
2022-12-27T04:26:43.425Z,5.97
2022-12-27T04:29:48.969Z,5.96
2022-12-27T04:32:54.611Z,5.91
2022-12-27T04:35:41.466Z,5.90
2022-12-27T04:38:28.325Z,5.86
2022-12-27T04:41:33.845Z,5.85
2022-12-27T04:44:50.067Z,5.82
2022-12-27T04:47:55.177Z,5.77
2022-12-27T04:51:02.281Z,5.68
2022-12-27T04:54:07.624Z,5.71
2022-12-27T04:56:57.213Z,5.69
2022-12-27T05:00:02.698Z,5.66
2022-12-27T05:02:49.779Z,5.62
2022-12-27T05:05:37.312Z,5.61
2022-12-27T05:08:42.615Z,5.57
2022-12-27T05:11:53.573Z,5.55
2022-12-27T05:14:40.426Z,5.51
2022-12-27T05:17:29.969Z,5.49
2022-12-27T05:20:16.839Z,5.47
2022-12-27T05:23:25.919Z,5.42
2022-12-27T05:26:28.022Z,5.41
2022-12-27T05:29:15.949Z,5.39
2022-12-27T05:32:04.692Z,5.36
2022-12-27T05:34:54.879Z,5.35
2022-12-27T05:37:51.460Z,5.32
2022-12-27T05:40:41.406Z,5.28
2022-12-27T05:43:29.012Z,5.24
2022-12-27T05:46:19.091Z,5.21
2022-12-27T05:49:05.984Z,5.21
2022-12-27T05:51:52.756Z,5.19
2022-12-27T05:54:39.537Z,5.20
2022-12-27T05:57:26.364Z,5.16
2022-12-27T06:00:15.152Z,5.15
2022-12-27T06:03:03.071Z,5.13
2022-12-27T06:05:50.037Z,5.12
2022-12-27T06:08:37.799Z,5.10
2022-12-27T06:11:24.584Z,5.07
2022-12-27T06:14:11.359Z,5.04
2022-12-27T06:16:58.122Z,5.04
2022-12-27T06:19:44.915Z,5.02
2022-12-27T06:22:31.685Z,5.00
2022-12-27T06:25:18.541Z,4.97
2022-12-27T06:28:06.725Z,4.95
2022-12-27T06:30:53.484Z,4.93
2022-12-27T06:33:40.279Z,4.91
2022-12-27T06:36:28.792Z,4.88
2022-12-27T06:39:19.687Z,4.87
2022-12-27T06:42:06.513Z,4.83
2022-12-27T06:44:53.289Z,4.82
2022-12-27T06:47:43.146Z,4.78
2022-12-27T06:50:30.002Z,4.77
2022-12-27T06:53:16.773Z,4.76
2022-12-27T06:56:07.573Z,4.73
2022-12-27T06:58:54.641Z,4.71
2022-12-27T07:01:44.297Z,4.69
2022-12-27T07:04:31.159Z,4.67
2022-12-27T07:07:17.946Z,4.61
2022-12-27T07:10:05.171Z,4.59
2022-12-27T07:12:51.912Z,4.56
2022-12-27T07:15:38.918Z,4.56
2022-12-27T07:18:28.092Z,4.55
2022-12-27T07:21:16.610Z,4.50
2022-12-27T07:24:03.550Z,4.50
2022-12-27T07:26:50.377Z,4.47
2022-12-27T07:29:43.489Z,4.45
2022-12-27T07:32:32.208Z,4.43
2022-12-27T07:35:19.029Z,4.41
2022-12-27T07:38:05.802Z,4.39
2022-12-27T07:40:52.679Z,4.35
2022-12-27T07:43:39.819Z,4.34
2022-12-27T07:46:28.913Z,4.33
2022-12-27T07:49:18.007Z,4.31
2022-12-27T07:52:04.935Z,4.29
2022-12-27T07:55:00.235Z,4.24
2022-12-27T07:57:46.999Z,4.23
2022-12-27T08:00:33.921Z,4.21
2022-12-27T08:03:41.275Z,4.17
2022-12-27T08:06:35.911Z,4.11
2022-12-27T08:09:26.894Z,4.09
2022-12-27T08:12:16.983Z,4.04
2022-12-27T08:15:06.065Z,4.04
2022-12-27T08:17:52.857Z,4.02
2022-12-27T08:20:47.277Z,4.00
2022-12-27T08:23:34.136Z,3.96
2022-12-27T08:26:20.899Z,3.93
2022-12-27T08:29:07.726Z,3.90
2022-12-27T08:31:57.332Z,3.88
2022-12-27T08:34:44.109Z,3.84
2022-12-27T08:37:39.372Z,3.80
2022-12-27T08:40:28.322Z,3.77
2022-12-27T08:43:22.547Z,3.68
2022-12-27T08:46:11.986Z,3.70
2022-12-27T08:49:00.774Z,3.67
2022-12-27T08:52:02.865Z,3.60
2022-12-27T08:54:50.300Z,3.58
2022-12-27T08:57:39.964Z,3.62
2022-12-27T09:00:32.091Z,3.65
2022-12-27T09:03:24.749Z,3.64
2022-12-27T09:06:17.678Z,3.70
2022-12-27T09:09:14.959Z,3.70
2022-12-27T09:12:37.002Z,3.78
2022-12-27T09:15:33.478Z,3.80
2022-12-27T09:18:26.668Z,3.77
2022-12-27T09:21:31.559Z,3.83
2022-12-27T09:24:19.771Z,3.84
2022-12-27T09:27:09.248Z,3.93
2022-12-27T09:30:04.648Z,3.98
2022-12-27T09:32:57.791Z,4.00
2022-12-27T09:35:49.915Z,4.08
2022-12-27T09:38:40.264Z,4.04
2022-12-27T09:45:39.645Z,4.16
2022-12-27T09:48:39.116Z,4.16
2022-12-27T09:51:46.772Z,4.20
2022-12-27T09:54:44.307Z,4.21
2022-12-27T09:57:36.151Z,4.26
2022-12-27T10:00:32.752Z,4.27
2022-12-27T10:03:25.891Z,4.31
2022-12-27T10:06:32.159Z,4.31
2022-12-27T10:09:56.724Z,4.37
2022-12-27T10:12:58.288Z,4.38
2022-12-27T10:16:19.895Z,4.41
2022-12-27T10:19:32.361Z,4.44
2022-12-27T10:22:36.612Z,4.46
2022-12-27T10:25:24.494Z,4.46
2022-12-27T10:28:30.152Z,4.49
2022-12-27T10:31:32.901Z,4.50
2022-12-27T10:37:38.791Z,4.52
2022-12-27T10:40:46.839Z,4.58
2022-12-27T10:43:45.638Z,4.51
2022-12-27T10:46:36.144Z,4.56
2022-12-27T10:49:33.362Z,4.59
2022-12-27T10:52:25.591Z,4.60
2022-12-27T10:58:42.496Z,4.58
2022-12-27T11:01:35.688Z,4.59
2022-12-27T11:04:31.471Z,4.56
2022-12-27T11:07:35.672Z,4.57
2022-12-27T11:10:34.587Z,4.55
2022-12-27T11:13:50.358Z,4.60
2022-12-27T11:16:53.969Z,4.59
2022-12-27T11:23:34.389Z,4.55
2022-12-27T11:26:57.080Z,4.65
2022-12-27T11:29:45.600Z,4.63
2022-12-27T11:33:15.066Z,4.72
2022-12-27T11:36:10.109Z,4.71
2022-12-27T11:39:03.469Z,4.73
2022-12-27T11:41:55.111Z,4.78
2022-12-27T11:44:45.667Z,4.83
2022-12-27T11:47:47.888Z,4.82
2022-12-27T11:50:54.274Z,4.81
2022-12-27T11:54:06.003Z,4.87
2022-12-27T11:57:16.856Z,4.90
2022-12-27T12:00:12.355Z,4.94
2022-12-27T12:03:23.690Z,4.95
2022-12-27T12:06:27.825Z,4.98
2022-12-27T12:09:42.671Z,4.98
2022-12-27T12:13:12.036Z,4.96
2022-12-27T12:16:28.261Z,5.02
2022-12-27T12:19:50.567Z,5.02
2022-12-27T12:22:51.858Z,5.04
2022-12-27T12:26:06.831Z,5.05
2022-12-27T12:29:24.026Z,5.08
2022-12-27T12:33:00.141Z,5.10
2022-12-27T12:36:28.226Z,5.11
2022-12-27T12:39:27.398Z,5.13
2022-12-27T12:42:14.188Z,5.14
2022-12-27T12:45:15.545Z,5.14
2022-12-27T12:48:38.710Z,5.17
2022-12-27T12:51:34.336Z,5.18
2022-12-27T12:54:39.688Z,5.22
2022-12-27T12:57:59.634Z,5.23
2022-12-27T13:00:59.636Z,5.26
2022-12-27T13:04:01.004Z,5.27
2022-12-27T13:07:08.998Z,5.31
2022-12-27T13:10:12.308Z,5.32
2022-12-27T13:13:17.821Z,5.35
2022-12-27T13:16:35.773Z,5.38
2022-12-27T13:19:52.909Z,5.39
2022-12-27T13:22:58.597Z,5.42
2022-12-27T13:26:08.334Z,5.43
2022-12-27T13:29:13.892Z,5.44
2022-12-27T13:32:13.378Z,5.45
2022-12-27T13:35:21.631Z,5.47
2022-12-27T13:38:08.360Z,5.48
2022-12-27T13:41:32.956Z,5.48
2022-12-27T13:44:47.601Z,5.49
2022-12-27T13:47:42.233Z,5.48
2022-12-27T13:50:59.231Z,5.49
2022-12-27T13:53:46.015Z,5.51
2022-12-27T13:56:58.046Z,5.53
2022-12-27T13:59:48.651Z,5.53
2022-12-27T14:03:37.000Z,5.55
2022-12-27T14:07:04.360Z,5.54
2022-12-27T14:10:13.028Z,5.55
2022-12-27T14:13:01.723Z,5.55
2022-12-27T14:16:13.264Z,5.54
2022-12-27T14:19:20.342Z,5.54
2022-12-27T14:22:54.687Z,5.51
2022-12-27T14:26:03.223Z,5.54
2022-12-27T14:29:15.410Z,5.52
2022-12-27T14:32:28.061Z,5.50
2022-12-27T14:35:38.949Z,5.50
2022-12-27T14:38:48.301Z,5.47
2022-12-27T14:41:59.982Z,5.48
2022-12-27T14:45:18.123Z,5.47
2022-12-27T14:48:19.273Z,5.42
2022-12-27T14:55:10.859Z,5.50
2022-12-27T14:58:06.716Z,5.53
2022-12-27T15:01:26.042Z,5.58
2022-12-27T15:04:50.450Z,5.62
2022-12-27T15:07:51.819Z,5.64
2022-12-27T15:10:54.398Z,5.65
2022-12-27T15:14:00.499Z,5.67
2022-12-27T15:17:06.220Z,5.66
2022-12-27T15:20:25.045Z,5.68
2022-12-27T15:23:20.678Z,5.67
2022-12-27T15:26:19.811Z,5.68
2022-12-27T15:29:12.532Z,5.67
2022-12-27T15:32:12.266Z,5.68
2022-12-27T15:35:17.902Z,5.66
2022-12-27T15:38:14.640Z,5.63
2022-12-27T15:41:09.395Z,5.62
2022-12-27T15:44:17.632Z,5.60
2022-12-27T15:47:19.577Z,5.58
2022-12-27T15:50:19.037Z,5.55
2022-12-27T15:53:21.026Z,5.53
2022-12-27T15:56:21.539Z,5.50
2022-12-27T15:59:47.328Z,5.47
2022-12-27T16:02:49.373Z,5.45
2022-12-27T16:05:41.058Z,5.41
2022-12-27T16:08:31.759Z,5.39
2022-12-27T16:11:18.573Z,5.36
2022-12-27T16:14:25.023Z,5.36
2022-12-27T16:17:26.263Z,5.36
2022-12-27T16:20:23.472Z,5.34
2022-12-27T16:23:11.314Z,5.32
2022-12-27T16:26:09.970Z,5.27
2022-12-27T16:29:04.446Z,5.28
2022-12-27T16:31:54.283Z,5.26
2022-12-27T16:34:49.201Z,5.26
2022-12-27T16:37:45.783Z,5.18
2022-12-27T16:40:40.488Z,5.20
2022-12-27T16:43:51.560Z,5.21
2022-12-27T16:47:19.218Z,5.14
2022-12-27T16:50:27.579Z,5.17
2022-12-27T16:53:39.184Z,5.15
2022-12-27T16:56:28.066Z,5.09
2022-12-27T16:59:52.354Z,5.11
2022-12-27T17:02:46.434Z,5.04
2022-12-27T17:05:44.785Z,5.05
2022-12-27T17:08:38.091Z,4.98
2022-12-27T17:11:26.264Z,5.02
2022-12-27T17:14:18.736Z,4.96
2022-12-27T17:17:16.952Z,4.91
2022-12-27T17:20:07.080Z,4.90
2022-12-27T17:22:57.536Z,4.96
2022-12-27T17:25:55.139Z,4.89
2022-12-27T17:28:52.613Z,4.88
2022-12-27T17:31:53.927Z,4.86
2022-12-27T17:35:05.900Z,4.85
2022-12-27T17:38:18.973Z,4.86
2022-12-27T17:42:05.545Z,4.74
2022-12-27T17:45:17.636Z,4.79
2022-12-27T17:48:34.199Z,4.72
2022-12-27T17:51:29.524Z,4.72
2022-12-27T17:54:43.722Z,4.70
2022-12-27T17:57:51.793Z,4.66
2022-12-27T18:00:50.096Z,4.68
2022-12-27T18:03:44.639Z,4.64
2022-12-27T18:07:01.866Z,4.56
2022-12-27T18:10:04.504Z,4.61
2022-12-27T18:12:56.797Z,4.55
2022-12-27T18:15:46.043Z,4.56
2022-12-27T18:18:52.592Z,4.55
2022-12-27T18:22:34.156Z,4.46
2022-12-27T18:25:26.131Z,4.43
2022-12-27T18:28:55.030Z,4.38
2022-12-27T18:31:50.539Z,4.43
2022-12-27T18:34:58.275Z,4.35
2022-12-27T18:37:45.491Z,4.33
2022-12-27T18:40:35.830Z,4.41
2022-12-27T18:43:22.695Z,4.39
2022-12-27T18:46:15.164Z,4.37
2022-12-27T18:49:11.530Z,4.30
2022-12-27T18:51:59.852Z,4.24
2022-12-27T18:54:46.882Z,4.26
2022-12-27T18:57:39.175Z,4.23
2022-12-27T19:00:28.140Z,4.20
2022-12-27T19:03:16.916Z,4.22
2022-12-27T19:06:10.213Z,4.20
2022-12-27T19:08:57.145Z,4.18
2022-12-27T19:12:01.118Z,4.18
2022-12-27T19:14:48.148Z,4.13
2022-12-27T19:17:38.296Z,4.13
2022-12-27T19:20:33.888Z,4.08
2022-12-27T19:23:37.627Z,4.10
2022-12-27T19:26:31.346Z,4.11
2022-12-27T19:29:31.356Z,4.03
2022-12-27T19:32:22.623Z,4.06
2022-12-27T19:35:14.078Z,3.99
2022-12-27T19:38:27.382Z,3.95
2022-12-27T19:41:16.734Z,3.93
2022-12-27T19:44:26.611Z,3.99
2022-12-27T19:47:14.410Z,3.93
2022-12-27T19:50:07.203Z,3.92
2022-12-27T19:52:54.093Z,3.91
2022-12-27T19:55:49.420Z,3.88
2022-12-27T19:58:39.284Z,3.82
2022-12-27T20:01:35.120Z,3.83
2022-12-27T20:04:22.379Z,3.80
2022-12-27T20:07:20.777Z,3.81
2022-12-27T20:10:11.868Z,3.77
2022-12-27T20:13:09.176Z,3.78
2022-12-27T20:15:57.992Z,3.71
2022-12-27T20:18:55.381Z,3.72
2022-12-27T20:21:45.170Z,3.72
2022-12-27T20:24:38.121Z,3.68
2022-12-27T20:27:25.128Z,3.68
2022-12-27T20:30:23.174Z,3.68
2022-12-27T20:33:10.511Z,3.65
2022-12-27T20:36:00.793Z,3.67
2022-12-27T20:38:52.345Z,3.61
2022-12-27T20:41:42.413Z,3.62
2022-12-27T20:44:29.512Z,3.60
2022-12-27T20:47:16.618Z,3.57
2022-12-27T20:50:09.282Z,3.53
2022-12-27T20:52:58.621Z,3.48
2022-12-27T20:56:12.203Z,3.56
2022-12-27T20:59:13.949Z,3.48
2022-12-27T21:02:08.148Z,3.43
2022-12-27T21:04:57.758Z,3.44
2022-12-27T21:07:54.932Z,3.42
2022-12-27T21:10:44.157Z,3.37
2022-12-27T21:13:44.411Z,3.42
2022-12-27T21:16:34.077Z,3.37
2022-12-27T21:19:22.571Z,3.34
2022-12-27T21:22:17.215Z,3.35
2022-12-27T21:25:14.359Z,3.35
2022-12-27T21:28:04.256Z,3.29
2022-12-27T21:30:57.654Z,3.27
2022-12-27T21:33:52.153Z,3.29
2022-12-27T21:36:41.754Z,3.23
2022-12-27T21:39:28.703Z,3.24
2022-12-27T21:42:18.637Z,3.20
2022-12-27T21:45:06.428Z,3.20
2022-12-27T21:47:55.708Z,3.20
2022-12-27T21:50:42.712Z,3.21
2022-12-27T21:53:32.112Z,3.16
2022-12-27T21:56:19.435Z,3.14
2022-12-27T21:59:12.389Z,3.13
2022-12-27T22:01:59.490Z,3.09
2022-12-27T22:04:55.259Z,3.06
2022-12-27T22:07:56.722Z,3.01
2022-12-27T22:10:53.797Z,3.08
2022-12-27T22:13:43.695Z,3.01
2022-12-27T22:16:38.071Z,3.05
2022-12-27T22:19:24.990Z,2.96
2022-12-27T22:22:11.932Z,2.99
2022-12-27T22:24:58.830Z,2.97
2022-12-27T22:27:48.973Z,2.93
2022-12-27T22:30:40.229Z,2.98
2022-12-27T22:33:30.218Z,2.96
2022-12-27T22:36:19.375Z,2.90
2022-12-27T22:39:06.417Z,2.93
2022-12-27T22:41:53.292Z,2.90
2022-12-27T22:44:48.951Z,2.88
2022-12-27T22:47:35.807Z,2.87
2022-12-27T22:50:22.845Z,2.84
2022-12-27T22:53:17.063Z,2.84
2022-12-27T22:56:04.070Z,2.83
2022-12-27T22:58:51.299Z,2.80
2022-12-27T23:01:39.812Z,2.77
2022-12-27T23:04:26.842Z,2.78
2022-12-27T23:07:13.647Z,2.72
2022-12-27T23:10:00.440Z,2.74
2022-12-27T23:12:50.096Z,2.73
2022-12-27T23:15:37.011Z,2.71
2022-12-27T23:18:24.144Z,2.67
2022-12-27T23:21:20.804Z,2.64
2022-12-27T23:24:10.937Z,2.62
2022-12-27T23:26:57.747Z,2.62
2022-12-27T23:29:44.514Z,2.61
2022-12-27T23:32:31.292Z,2.60
2022-12-27T23:35:18.090Z,2.59
2022-12-27T23:38:07.948Z,2.58
2022-12-27T23:40:56.179Z,2.57
2022-12-27T23:43:58.504Z,2.52
2022-12-27T23:46:45.356Z,2.53
2022-12-27T23:49:32.184Z,2.51
2022-12-27T23:52:18.997Z,2.50
2022-12-27T23:55:06.686Z,2.47
2022-12-27T23:57:53.530Z,2.44
